createdAt,value
2022-08-26T00:00:56.243Z,101300.94
2022-08-26T00:01:58.133Z,101300.69
2022-08-26T00:02:57.993Z,101300.35
2022-08-26T00:03:58.826Z,101300.08
2022-08-26T00:04:59.748Z,101300.03
2022-08-26T00:06:01.474Z,101299.44
2022-08-26T00:07:01.497Z,101299.61
2022-08-26T00:08:01.826Z,101299.44
2022-08-26T00:09:02.888Z,101299.22
2022-08-26T00:10:02.143Z,101299.39
2022-08-26T00:11:02.125Z,101299.07
2022-08-26T00:12:03.882Z,101299.52
2022-08-26T00:13:03.898Z,101299.69
2022-08-26T00:14:03.462Z,101298.95
2022-08-26T00:14:13.100Z,101296.84
2022-08-26T00:15:14.020Z,101296.03
2022-08-26T00:16:15.354Z,101296.23
2022-08-26T00:17:15.047Z,101296.01
2022-08-26T00:18:21.692Z,101296.55
2022-08-26T00:19:16.680Z,101296.87
2022-08-26T00:20:17.542Z,101297.19
2022-08-26T00:21:18.863Z,101297.59
2022-08-26T00:22:20.216Z,101297.78
2022-08-26T00:23:19.262Z,101298.37
2022-08-26T00:24:20.107Z,101298.34
2022-08-26T00:25:21.986Z,101298.85
2022-08-26T00:26:22.938Z,101299.33
2022-08-26T00:27:22.680Z,101299.77
2022-08-26T00:28:23.717Z,101300.24
2022-08-26T00:29:23.347Z,101300.54
2022-08-26T00:30:25.036Z,101300.47
2022-08-26T00:31:24.241Z,101301.16
2022-08-26T00:32:24.786Z,101301.36
2022-08-26T00:33:24.829Z,101302.20
2022-08-26T00:34:26.662Z,101302.20
2022-08-26T00:35:27.954Z,101302.62
2022-08-26T00:36:29.823Z,101303.11
2022-08-26T00:37:27.816Z,101303.00
2022-08-26T00:38:28.144Z,101303.41
2022-08-26T00:38:37.842Z,101314.53
2022-08-26T00:39:37.341Z,101314.00
2022-08-26T00:40:37.350Z,101313.66
2022-08-26T00:41:38.519Z,101313.77
2022-08-26T00:42:38.380Z,101313.26
2022-08-26T00:43:46.311Z,101313.36
2022-08-26T00:44:38.718Z,101312.97
2022-08-26T00:46:11.473Z,101304.00
2022-08-26T00:47:12.412Z,101308.11
2022-08-26T00:48:14.221Z,101308.02
2022-08-26T00:49:14.975Z,101307.67
2022-08-26T00:50:14.806Z,101306.91
2022-08-26T00:51:15.763Z,101306.40
2022-08-26T00:52:16.796Z,101306.47
2022-08-26T00:53:18.760Z,101306.11
2022-08-26T00:54:18.469Z,101305.81
2022-08-26T00:55:20.252Z,101305.55
2022-08-26T00:56:18.179Z,101305.32
2022-08-26T00:57:19.737Z,101305.32
2022-08-26T00:58:19.594Z,101305.22
2022-08-26T00:59:20.522Z,101305.64
2022-08-26T01:00:20.670Z,101305.62
2022-08-26T01:01:23.108Z,101305.69
2022-08-26T01:02:21.904Z,101306.36
2022-08-26T01:03:21.724Z,101306.60
2022-08-26T01:04:21.892Z,101307.23
2022-08-26T01:05:23.499Z,101308.14
2022-08-26T01:06:23.389Z,101308.58
2022-08-26T01:07:24.268Z,101309.05
2022-08-26T01:08:26.046Z,101310.25
2022-08-26T01:09:25.941Z,101311.11
2022-08-26T01:10:26.888Z,101312.14
2022-08-26T01:11:28.324Z,101313.86
2022-08-26T01:11:36.927Z,101338.67
2022-08-26T01:12:40.184Z,101336.45
2022-08-26T01:13:37.669Z,101336.80
2022-08-26T01:14:39.510Z,101336.98
2022-08-26T01:15:39.420Z,101338.44
2022-08-26T01:16:40.135Z,101339.56
2022-08-26T01:17:40.908Z,101340.38
2022-08-26T01:18:41.906Z,101341.45
2022-08-26T01:19:41.211Z,101342.30
2022-08-26T01:20:41.331Z,101342.16
2022-08-26T01:21:43.147Z,101342.31
2022-08-26T01:22:43.651Z,101342.42
2022-08-26T01:23:45.095Z,101343.06
2022-08-26T01:24:44.373Z,101343.16
2022-08-26T01:25:46.068Z,101343.33
2022-08-26T01:26:46.228Z,101343.94
2022-08-26T01:27:46.869Z,101345.02
2022-08-26T01:28:46.607Z,101345.91
2022-08-26T01:29:47.327Z,101346.05
2022-08-26T01:30:48.244Z,101346.37
2022-08-26T01:31:50.340Z,101346.98
2022-08-26T01:32:50.010Z,101347.32
2022-08-26T01:33:51.038Z,101347.81
2022-08-26T01:34:51.019Z,101347.47
2022-08-26T01:35:51.070Z,101347.47
2022-08-26T01:36:00.480Z,101359.52
2022-08-26T01:37:01.276Z,101355.72
2022-08-26T01:38:02.100Z,101355.48
2022-08-26T01:39:07.333Z,101355.74
2022-08-26T01:40:02.804Z,101355.63
2022-08-26T01:41:02.740Z,101355.73
2022-08-26T01:42:03.498Z,101355.81
2022-08-26T01:43:03.638Z,101355.86
2022-08-26T01:44:03.575Z,101356.03
2022-08-26T01:45:05.401Z,101355.78
2022-08-26T01:46:05.345Z,101355.74
2022-08-26T01:47:06.429Z,101356.01
2022-08-26T01:48:06.205Z,101356.11
2022-08-26T01:49:06.858Z,101355.64
2022-08-26T01:50:07.029Z,101355.84
2022-08-26T01:51:10.171Z,101356.00
2022-08-26T01:52:08.539Z,101356.25
2022-08-26T01:53:11.375Z,101356.15
2022-08-26T01:54:11.836Z,101355.87
2022-08-26T01:55:10.343Z,101356.37
2022-08-26T01:56:10.424Z,101356.61
2022-08-26T01:57:12.340Z,101357.00
2022-08-26T01:57:21.002Z,101369.30
2022-08-26T01:58:21.835Z,101367.13
2022-08-26T01:59:22.282Z,101366.64
2022-08-26T02:00:22.924Z,101367.33
2022-08-26T02:01:23.067Z,101367.64
2022-08-26T02:02:24.523Z,101367.45
2022-08-26T02:03:24.396Z,101367.37
2022-08-26T02:04:25.167Z,101367.37
2022-08-26T02:05:26.067Z,101367.37
2022-08-26T02:06:26.828Z,101367.88
2022-08-26T02:07:27.776Z,101367.79
2022-08-26T02:08:27.864Z,101368.08
2022-08-26T02:09:28.613Z,101367.98
2022-08-26T02:10:29.432Z,101368.58
2022-08-26T02:11:29.470Z,101369.13
2022-08-26T02:12:31.103Z,101370.33
2022-08-26T02:13:30.613Z,101370.62
2022-08-26T02:14:30.713Z,101370.80
2022-08-26T02:15:31.584Z,101371.78
2022-08-26T02:16:31.714Z,101372.02
2022-08-26T02:17:31.786Z,101371.94
2022-08-26T02:18:32.532Z,101372.22
2022-08-26T02:19:34.158Z,101372.13
2022-08-26T02:20:34.236Z,101372.20
2022-08-26T02:21:33.998Z,101372.98
2022-08-26T02:22:35.668Z,101373.77
2022-08-26T02:23:36.437Z,101373.69
2022-08-26T02:24:36.312Z,101374.08
2022-08-26T02:25:37.573Z,101374.95
2022-08-26T02:25:46.521Z,101387.17
2022-08-26T02:26:47.448Z,101384.69
2022-08-26T02:27:47.730Z,101384.69
2022-08-26T02:28:49.608Z,101385.25
2022-08-26T02:29:49.698Z,101384.84
2022-08-26T02:30:48.735Z,101384.77
2022-08-26T02:31:49.495Z,101385.23
2022-08-26T02:32:50.220Z,101385.03
2022-08-26T02:33:51.208Z,101385.56
2022-08-26T02:34:50.960Z,101385.63
2022-08-26T02:35:52.583Z,101386.47
2022-08-26T02:36:53.315Z,101386.95
2022-08-26T02:37:53.168Z,101387.14
2022-08-26T02:38:53.593Z,101387.78
2022-08-26T02:39:54.172Z,101387.29
2022-08-26T02:40:54.956Z,101387.80
2022-08-26T02:41:56.590Z,101387.72
2022-08-26T02:42:57.165Z,101388.20
2022-08-26T02:43:56.162Z,101388.21
2022-08-26T02:44:57.697Z,101388.31
2022-08-26T02:45:56.812Z,101388.19
2022-08-26T02:46:58.554Z,101388.63
2022-08-26T02:47:58.407Z,101388.94
2022-08-26T02:48:59.264Z,101389.43
2022-08-26T02:50:00.876Z,101389.96
2022-08-26T02:50:10.503Z,101401.17
2022-08-26T02:51:11.731Z,101397.88
2022-08-26T02:52:11.372Z,101397.54
2022-08-26T02:53:13.195Z,101396.86
2022-08-26T02:54:14.053Z,101397.02
2022-08-26T02:55:13.805Z,101396.39
2022-08-26T02:56:15.485Z,101396.39
2022-08-26T02:57:15.529Z,101395.97
2022-08-26T02:58:16.516Z,101395.38
2022-08-26T02:59:17.412Z,101394.83
2022-08-26T03:00:18.172Z,101394.48
2022-08-26T03:01:18.061Z,101394.31
2022-08-26T03:02:18.142Z,101394.16
2022-08-26T03:03:18.789Z,101393.45
2022-08-26T03:04:20.339Z,101393.71
2022-08-26T03:05:21.241Z,101393.47
2022-08-26T03:06:20.815Z,101393.52
2022-08-26T03:07:22.566Z,101393.48
2022-08-26T03:08:22.809Z,101393.16
2022-08-26T03:09:23.481Z,101392.70
2022-08-26T03:10:23.267Z,101392.72
2022-08-26T03:10:32.937Z,101386.40
2022-08-26T03:11:33.621Z,101385.87
2022-08-26T03:12:33.715Z,101385.98
2022-08-26T03:13:34.532Z,101386.61
2022-08-26T03:14:36.130Z,101387.20
2022-08-26T03:15:36.431Z,101387.47
2022-08-26T03:16:36.173Z,101387.64
2022-08-26T03:17:36.800Z,101388.06
2022-08-26T03:18:38.384Z,101388.64
2022-08-26T03:19:38.080Z,101388.81
2022-08-26T03:20:38.756Z,101389.33
2022-08-26T03:21:40.461Z,101389.00
2022-08-26T03:22:39.522Z,101389.13
2022-08-26T03:23:40.728Z,101389.06
2022-08-26T03:24:39.941Z,101389.23
2022-08-26T03:25:40.872Z,101389.24
2022-08-26T03:26:52.062Z,101389.20
2022-08-26T03:27:43.122Z,101389.30
2022-08-26T03:28:42.774Z,101389.39
2022-08-26T03:29:43.486Z,101389.22
2022-08-26T03:30:45.836Z,101389.48
2022-08-26T03:31:44.928Z,101389.28
2022-08-26T03:32:45.062Z,101389.50
2022-08-26T03:33:46.082Z,101389.26
2022-08-26T03:33:59.139Z,101392.45
2022-08-26T03:34:56.196Z,101382.05
2022-08-26T03:35:58.103Z,101382.22
2022-08-26T03:36:59.001Z,101381.80
2022-08-26T03:37:58.717Z,101383.00
2022-08-26T03:39:00.625Z,101383.39
2022-08-26T03:40:01.305Z,101383.11
2022-08-26T03:41:00.820Z,101383.42
2022-08-26T03:42:01.647Z,101383.86
2022-08-26T03:43:02.377Z,101384.30
2022-08-26T03:44:04.115Z,101384.36
2022-08-26T03:46:12.890Z,101392.74
2022-08-26T03:47:13.559Z,101389.45
2022-08-26T03:48:15.188Z,101389.37
2022-08-26T03:49:16.173Z,101389.70
2022-08-26T03:50:15.338Z,101389.83
2022-08-26T03:51:18.227Z,101390.27
2022-08-26T03:52:16.377Z,101390.55
2022-08-26T03:53:16.532Z,101390.74
2022-08-26T03:54:17.253Z,101390.94
2022-08-26T03:55:18.860Z,101390.75
2022-08-26T03:56:19.595Z,101391.05
2022-08-26T03:57:20.298Z,101391.39
2022-08-26T03:58:21.153Z,101392.15
2022-08-26T04:00:38.371Z,101399.03
2022-08-26T04:01:39.267Z,101397.64
2022-08-26T04:02:39.812Z,101397.42
2022-08-26T04:03:40.359Z,101397.86
2022-08-26T04:04:40.995Z,101397.40
2022-08-26T04:05:41.516Z,101397.56
2022-08-26T04:06:42.292Z,101397.23
2022-08-26T04:07:43.221Z,101397.40
2022-08-26T04:08:43.437Z,101397.32
2022-08-26T04:09:43.708Z,101396.98
2022-08-26T04:10:45.444Z,101397.10
2022-08-26T04:11:44.961Z,101397.17
2022-08-26T04:12:45.433Z,101397.17
2022-08-26T04:13:47.101Z,101397.35
2022-08-26T04:14:47.002Z,101397.42
2022-08-26T04:15:48.731Z,101397.47
2022-08-26T04:16:48.123Z,101397.03
2022-08-26T04:17:49.332Z,101397.02
2022-08-26T04:18:48.992Z,101397.05
2022-08-26T04:19:50.385Z,101396.83
2022-08-26T04:20:49.871Z,101397.09
2022-08-26T04:21:51.445Z,101397.07
2022-08-26T04:22:51.342Z,101396.84
2022-08-26T04:23:52.056Z,101397.06
2022-08-26T04:24:52.990Z,101396.73
2022-08-26T04:25:01.616Z,101396.55
2022-08-26T04:26:02.014Z,101396.26
2022-08-26T04:27:03.125Z,101396.14
2022-08-26T04:28:03.018Z,101396.13
2022-08-26T04:29:04.673Z,101395.91
2022-08-26T04:30:03.718Z,101395.56
2022-08-26T04:31:04.420Z,101395.39
2022-08-26T04:32:04.857Z,101395.26
2022-08-26T04:33:12.939Z,101395.30
2022-08-26T04:34:06.480Z,101394.64
2022-08-26T04:35:07.779Z,101394.11
2022-08-26T04:36:07.678Z,101394.50
2022-08-26T04:37:07.689Z,101394.33
2022-08-26T04:38:09.274Z,101394.27
2022-08-26T04:39:09.373Z,101393.54
2022-08-26T04:40:08.436Z,101393.34
2022-08-26T04:41:15.292Z,101393.69
2022-08-26T04:42:10.112Z,101393.73
2022-08-26T04:43:11.832Z,101394.45
2022-08-26T04:45:23.851Z,101392.72
2022-08-26T04:46:24.266Z,101393.83
2022-08-26T04:47:25.553Z,101393.31
2022-08-26T04:48:24.493Z,101393.31
2022-08-26T04:49:26.127Z,101393.90
2022-08-26T04:50:25.214Z,101394.02
2022-08-26T04:51:26.356Z,101394.02
2022-08-26T04:52:26.122Z,101394.28
2022-08-26T04:53:26.613Z,101394.75
2022-08-26T04:54:28.643Z,101395.63
2022-08-26T04:55:38.313Z,101396.14
2022-08-26T04:56:28.652Z,101396.31
2022-08-26T04:57:30.243Z,101397.00
2022-08-26T04:58:30.122Z,101397.86
2022-08-26T05:00:08.006Z,101398.38
2022-08-26T05:01:03.895Z,101413.56
2022-08-26T05:02:04.892Z,101413.31
2022-08-26T05:03:05.330Z,101412.80
2022-08-26T05:04:07.996Z,101412.63
2022-08-26T05:05:06.027Z,101412.21
2022-08-26T05:06:07.550Z,101412.46
2022-08-26T05:07:06.827Z,101412.28
2022-08-26T05:08:08.457Z,101412.92
2022-08-26T05:09:08.390Z,101412.83
2022-08-26T05:10:10.059Z,101412.53
2022-08-26T05:11:10.015Z,101412.85
2022-08-26T05:12:11.272Z,101412.63
2022-08-26T05:13:12.647Z,101412.61
2022-08-26T05:14:11.223Z,101412.55
2022-08-26T05:15:11.845Z,101412.61
2022-08-26T05:16:13.768Z,101412.47
2022-08-26T05:17:15.041Z,101412.07
2022-08-26T05:18:13.702Z,101412.17
2022-08-26T05:19:14.880Z,101412.37
2022-08-26T05:20:14.644Z,101412.30
2022-08-26T05:21:14.940Z,101412.03
2022-08-26T05:22:15.769Z,101412.15
2022-08-26T05:23:16.452Z,101412.20
2022-08-26T05:24:18.194Z,101412.13
2022-08-26T05:24:26.809Z,101414.80
2022-08-26T05:25:27.599Z,101406.03
2022-08-26T05:26:28.391Z,101406.72
2022-08-26T05:27:29.890Z,101407.55
2022-08-26T05:28:29.540Z,101408.27
2022-08-26T05:29:31.353Z,101408.70
2022-08-26T05:30:31.975Z,101409.39
2022-08-26T05:31:31.680Z,101409.53
2022-08-26T05:32:32.290Z,101410.13
2022-08-26T05:33:33.411Z,101410.52
2022-08-26T05:34:34.078Z,101410.81
2022-08-26T05:35:33.426Z,101411.45
2022-08-26T05:36:35.124Z,101411.36
2022-08-26T05:37:34.576Z,101411.89
2022-08-26T05:38:35.206Z,101412.27
2022-08-26T05:39:35.857Z,101412.51
2022-08-26T05:40:37.608Z,101413.13
2022-08-26T05:41:38.407Z,101414.00
2022-08-26T05:42:37.559Z,101415.03
2022-08-26T05:43:39.117Z,101415.52
2022-08-26T05:44:55.351Z,101416.20
2022-08-26T05:45:43.531Z,101416.70
2022-08-26T05:46:40.354Z,101417.67
2022-08-26T05:47:40.753Z,101418.83
2022-08-26T05:47:51.382Z,101429.78
2022-08-26T05:48:52.788Z,101433.07
2022-08-26T05:49:53.756Z,101433.07
2022-08-26T05:50:53.284Z,101433.02
2022-08-26T05:51:53.895Z,101432.73
2022-08-26T05:52:54.787Z,101432.97
2022-08-26T05:53:55.726Z,101432.92
2022-08-26T05:54:56.777Z,101432.90
2022-08-26T05:55:58.188Z,101433.00
2022-08-26T05:56:57.364Z,101433.22
2022-08-26T05:57:58.940Z,101433.48
2022-08-26T05:58:59.800Z,101433.08
2022-08-26T05:59:58.507Z,101432.75
2022-08-26T06:01:00.290Z,101432.77
2022-08-26T06:01:59.512Z,101433.00
2022-08-26T06:02:59.978Z,101432.84
2022-08-26T06:04:01.711Z,101433.12
2022-08-26T06:05:01.197Z,101433.14
2022-08-26T06:06:01.782Z,101433.67
2022-08-26T06:07:02.376Z,101433.87
2022-08-26T06:08:03.219Z,101434.23
2022-08-26T06:09:03.939Z,101434.04
2022-08-26T06:10:31.118Z,101434.41
2022-08-26T06:11:05.331Z,101435.07
2022-08-26T06:11:18.422Z,101438.47
2022-08-26T06:12:13.513Z,101447.82
2022-08-26T06:13:13.873Z,101446.84
2022-08-26T06:14:13.978Z,101446.94
2022-08-26T06:15:14.982Z,101446.17
2022-08-26T06:16:15.920Z,101446.06
2022-08-26T06:17:15.407Z,101446.30
2022-08-26T06:18:17.281Z,101445.79
2022-08-26T06:19:16.948Z,101445.84
2022-08-26T06:20:18.666Z,101445.59
2022-08-26T06:21:19.127Z,101446.19
2022-08-26T06:22:22.424Z,101445.96
2022-08-26T06:23:19.345Z,101446.02
2022-08-26T06:24:20.730Z,101445.72
2022-08-26T06:25:20.539Z,101445.62
2022-08-26T06:26:21.572Z,101445.34
2022-08-26T06:27:21.379Z,101445.73
2022-08-26T06:27:32.862Z,101457.16
2022-08-26T06:28:29.205Z,101449.22
2022-08-26T06:29:29.305Z,101449.15
2022-08-26T06:30:33.209Z,101449.11
2022-08-26T06:31:30.627Z,101449.55
2022-08-26T06:32:30.563Z,101449.47
2022-08-26T06:33:30.415Z,101449.20
2022-08-26T06:34:31.308Z,101449.15
2022-08-26T06:35:33.232Z,101449.52
2022-08-26T06:36:34.094Z,101449.95
2022-08-26T06:37:33.467Z,101450.01
2022-08-26T06:38:34.147Z,101450.03
2022-08-26T06:39:35.022Z,101450.13
2022-08-26T06:40:35.058Z,101450.05
2022-08-26T06:41:39.051Z,101449.98
2022-08-26T06:42:36.714Z,101450.00
2022-08-26T06:43:37.611Z,101450.70
2022-08-26T06:44:38.273Z,101450.27
2022-08-26T06:45:39.265Z,101450.80
2022-08-26T06:46:40.158Z,101450.75
2022-08-26T06:47:40.317Z,101450.73
2022-08-26T06:48:42.620Z,101450.67
2022-08-26T06:49:41.549Z,101451.00
2022-08-26T06:49:54.318Z,101455.91
2022-08-26T06:50:54.649Z,101455.37
2022-08-26T06:51:55.861Z,101455.47
2022-08-26T06:52:54.963Z,101455.00
2022-08-26T06:53:55.153Z,101455.09
2022-08-26T06:54:56.655Z,101454.85
2022-08-26T06:55:57.617Z,101454.98
2022-08-26T06:56:58.419Z,101455.27
2022-08-26T06:57:59.117Z,101455.94
2022-08-26T06:58:59.490Z,101456.05
2022-08-26T06:59:58.686Z,101456.15
2022-08-26T07:01:03.762Z,101456.59
2022-08-26T07:01:59.909Z,101457.14
2022-08-26T07:03:00.764Z,101457.73
2022-08-26T07:04:01.202Z,101458.20
2022-08-26T07:05:02.381Z,101458.14
2022-08-26T07:06:02.202Z,101458.33
2022-08-26T07:06:12.647Z,101460.69
2022-08-26T07:07:10.284Z,101461.23
2022-08-26T07:08:10.966Z,101460.69
2022-08-26T07:09:11.886Z,101459.95
2022-08-26T07:10:12.799Z,101459.75
2022-08-26T07:11:13.637Z,101459.66
2022-08-26T07:12:14.406Z,101459.17
2022-08-26T07:13:16.049Z,101458.43
2022-08-26T07:14:47.305Z,101461.97
2022-08-26T07:15:44.014Z,101458.69
2022-08-26T07:16:44.733Z,101458.52
2022-08-26T07:17:44.926Z,101458.45
2022-08-26T07:18:45.324Z,101458.16
2022-08-26T07:19:45.701Z,101457.50
2022-08-26T07:20:46.694Z,101457.07
2022-08-26T07:21:47.847Z,101456.42
2022-08-26T07:22:48.056Z,101455.91
2022-08-26T07:23:56.379Z,101455.31
2022-08-26T07:24:49.296Z,101454.73
2022-08-26T07:25:50.061Z,101454.27
2022-08-26T07:26:50.484Z,101453.50
2022-08-26T07:27:54.179Z,101452.59
2022-08-26T07:28:51.569Z,101452.14
2022-08-26T07:29:51.458Z,101452.39
2022-08-26T07:30:51.965Z,101451.77
2022-08-26T07:31:52.233Z,101451.25
2022-08-26T07:32:52.369Z,101450.50
2022-08-26T07:33:53.442Z,101450.13
2022-08-26T07:34:54.344Z,101450.47
2022-08-26T07:35:03.457Z,101452.11
2022-08-26T07:36:04.273Z,101449.11
2022-08-26T07:37:04.035Z,101448.80
2022-08-26T07:38:04.197Z,101448.52
2022-08-26T07:39:04.560Z,101448.08
2022-08-26T07:40:04.696Z,101448.25
2022-08-26T07:41:04.938Z,101448.92
2022-08-26T07:42:07.394Z,101449.45
2022-08-26T07:43:05.340Z,101450.16
2022-08-26T07:44:05.620Z,101450.20
2022-08-26T07:45:06.928Z,101451.84
2022-08-26T07:46:06.261Z,101452.20
2022-08-26T07:47:39.433Z,101465.66
2022-08-26T07:48:40.341Z,101471.48
2022-08-26T07:49:40.901Z,101471.14
2022-08-26T07:50:49.540Z,101470.97
2022-08-26T07:51:41.833Z,101471.39
2022-08-26T07:52:42.249Z,101471.39
2022-08-26T07:53:43.649Z,101471.73
2022-08-26T07:54:43.180Z,101472.16
2022-08-26T07:55:43.371Z,101472.17
2022-08-26T07:56:44.201Z,101472.41
2022-08-26T07:57:43.989Z,101472.85
2022-08-26T07:58:50.530Z,101473.01
2022-08-26T07:59:44.883Z,101473.55
2022-08-26T08:00:45.852Z,101474.16
2022-08-26T08:01:46.228Z,101474.05
2022-08-26T08:02:47.423Z,101474.23
2022-08-26T08:03:47.236Z,101474.05
2022-08-26T08:04:47.788Z,101474.59
2022-08-26T08:05:47.793Z,101474.48
2022-08-26T08:06:49.772Z,101474.42
2022-08-26T08:07:53.482Z,101474.33
2022-08-26T08:08:50.726Z,101474.59
2022-08-26T08:09:50.580Z,101474.05
2022-08-26T08:10:51.355Z,101474.10
2022-08-26T08:11:52.284Z,101473.63
2022-08-26T08:12:54.168Z,101473.47
2022-08-26T08:13:03.316Z,101471.42
2022-08-26T08:14:04.116Z,101472.02
2022-08-26T08:15:04.245Z,101471.58
2022-08-26T08:16:05.198Z,101471.30
2022-08-26T08:17:06.172Z,101471.33
2022-08-26T08:18:06.169Z,101470.81
2022-08-26T08:19:07.051Z,101470.72
2022-08-26T08:20:08.135Z,101470.47
2022-08-26T08:21:22.058Z,101470.27
2022-08-26T08:22:17.450Z,101470.38
2022-08-26T08:23:08.569Z,101470.55
2022-08-26T08:24:10.709Z,101470.28
2022-08-26T08:25:10.888Z,101470.64
2022-08-26T08:26:10.823Z,101470.14
2022-08-26T08:27:12.243Z,101470.41
2022-08-26T08:28:12.173Z,101470.31
2022-08-26T08:29:14.168Z,101469.70
2022-08-26T08:30:14.042Z,101470.29
2022-08-26T08:31:14.103Z,101470.06
2022-08-26T08:32:15.439Z,101470.56
2022-08-26T08:33:14.886Z,101470.83
2022-08-26T08:34:16.146Z,101470.73
2022-08-26T08:35:15.818Z,101471.11
2022-08-26T08:36:18.431Z,101471.61
2022-08-26T08:37:17.034Z,101472.84
2022-08-26T08:37:28.658Z,101478.14
2022-08-26T08:38:30.496Z,101480.07
2022-08-26T08:39:31.305Z,101480.23
2022-08-26T08:40:31.541Z,101480.46
2022-08-26T08:41:30.902Z,101480.22
2022-08-26T08:42:31.748Z,101479.35
2022-08-26T08:43:32.548Z,101478.95
2022-08-26T08:44:34.865Z,101478.34
2022-08-26T08:45:36.582Z,101477.98
2022-08-26T08:46:34.782Z,101477.50
2022-08-26T08:47:35.114Z,101476.86
2022-08-26T08:48:35.692Z,101476.62
2022-08-26T08:49:36.424Z,101476.43
2022-08-26T08:50:37.172Z,101476.03
2022-08-26T08:51:37.594Z,101476.12
2022-08-26T08:52:39.580Z,101475.94
2022-08-26T08:53:39.518Z,101475.80
2022-08-26T08:54:38.932Z,101475.77
2022-08-26T08:55:42.388Z,101475.69
2022-08-26T08:56:41.786Z,101474.92
2022-08-26T08:57:39.939Z,101474.93
2022-08-26T08:58:42.012Z,101474.84
2022-08-26T08:59:41.224Z,101474.41
2022-08-26T09:00:41.947Z,101474.75
2022-08-26T09:00:50.591Z,101477.33
2022-08-26T09:01:52.262Z,101477.12
2022-08-26T09:02:51.919Z,101476.83
2022-08-26T09:03:53.290Z,101476.73
2022-08-26T09:04:53.217Z,101476.56
2022-08-26T09:05:55.216Z,101476.39
2022-08-26T09:06:54.713Z,101476.12
2022-08-26T09:07:54.799Z,101476.41
2022-08-26T09:08:54.857Z,101475.97
2022-08-26T09:09:56.206Z,101475.78
2022-08-26T09:10:57.131Z,101476.25
2022-08-26T09:11:56.119Z,101475.97
2022-08-26T09:12:57.299Z,101475.97
2022-08-26T09:13:58.014Z,101475.94
2022-08-26T09:14:57.115Z,101475.08
2022-08-26T09:15:58.064Z,101474.41
2022-08-26T09:16:59.444Z,101474.22
2022-08-26T09:17:58.844Z,101473.87
2022-08-26T09:19:00.578Z,101473.17
2022-08-26T09:19:59.965Z,101471.97
2022-08-26T09:21:00.634Z,101471.81
2022-08-26T09:22:05.792Z,101471.48
2022-08-26T09:23:01.319Z,101470.79
2022-08-26T09:23:11.943Z,101466.20
2022-08-26T09:24:14.188Z,101464.23
2022-08-26T09:25:13.313Z,101464.04
2022-08-26T09:26:13.348Z,101463.50
2022-08-26T09:27:16.914Z,101463.20
2022-08-26T09:28:14.683Z,101463.36
2022-08-26T09:29:15.203Z,101463.37
2022-08-26T09:30:16.017Z,101462.89
2022-08-26T09:31:18.065Z,101462.62
2022-08-26T09:32:17.514Z,101462.42
2022-08-26T09:33:18.227Z,101462.64
2022-08-26T09:34:19.039Z,101462.20
2022-08-26T09:35:19.404Z,101461.90
2022-08-26T09:36:20.469Z,101460.98
2022-08-26T09:37:21.205Z,101461.00
2022-08-26T09:38:22.116Z,101460.87
2022-08-26T09:39:22.694Z,101461.20
2022-08-26T09:40:23.560Z,101461.20
2022-08-26T09:41:22.846Z,101461.09
2022-08-26T09:42:22.935Z,101461.47
2022-08-26T09:43:24.263Z,101461.25
2022-08-26T09:44:24.316Z,101460.99
2022-08-26T09:44:35.946Z,101461.16
2022-08-26T09:45:37.694Z,101455.61
2022-08-26T09:46:37.533Z,101455.44
2022-08-26T09:47:37.617Z,101454.72
2022-08-26T09:48:40.482Z,101454.20
2022-08-26T09:49:37.745Z,101453.75
2022-08-26T09:50:38.065Z,101452.73
2022-08-26T09:51:38.663Z,101452.08
2022-08-26T09:52:40.408Z,101451.73
2022-08-26T09:53:39.233Z,101450.95
2022-08-26T09:54:40.889Z,101451.08
2022-08-26T09:55:40.200Z,101451.16
2022-08-26T09:56:42.158Z,101450.56
2022-08-26T09:57:41.398Z,101450.19
2022-08-26T09:58:41.948Z,101449.73
2022-08-26T09:59:41.947Z,101449.02
2022-08-26T10:00:42.457Z,101448.11
2022-08-26T10:01:43.493Z,101446.83
2022-08-26T10:02:47.877Z,101446.07
2022-08-26T10:03:44.651Z,101445.06
2022-08-26T10:04:45.032Z,101444.30
2022-08-26T10:05:45.221Z,101444.06
2022-08-26T10:06:46.623Z,101443.27
2022-08-26T10:07:47.274Z,101442.02
2022-08-26T10:08:47.399Z,101440.52
2022-08-26T10:09:46.344Z,101439.65
2022-08-26T10:09:54.987Z,101428.38
2022-08-26T10:10:55.410Z,101417.96
2022-08-26T10:11:57.112Z,101417.86
2022-08-26T10:12:57.750Z,101417.38
2022-08-26T10:13:58.153Z,101417.47
2022-08-26T10:14:57.657Z,101417.61
2022-08-26T10:15:59.115Z,101418.20
2022-08-26T10:16:58.269Z,101418.48
2022-08-26T10:18:00.117Z,101419.00
2022-08-26T10:19:00.254Z,101419.29
2022-08-26T10:19:59.947Z,101418.98
2022-08-26T10:21:00.330Z,101419.05
2022-08-26T10:22:00.584Z,101419.02
2022-08-26T10:23:00.760Z,101418.77
2022-08-26T10:24:01.444Z,101418.50
2022-08-26T10:25:02.792Z,101418.39
2022-08-26T10:26:02.311Z,101419.54
2022-08-26T10:27:03.293Z,101419.22
2022-08-26T10:28:03.710Z,101419.26
2022-08-26T10:29:05.317Z,101419.05
2022-08-26T10:30:04.324Z,101418.98
2022-08-26T10:31:06.005Z,101418.49
2022-08-26T10:32:06.861Z,101418.77
2022-08-26T10:33:06.778Z,101418.66
2022-08-26T10:33:18.087Z,101416.63
2022-08-26T10:34:17.236Z,101423.02
2022-08-26T10:35:17.583Z,101422.78
2022-08-26T10:36:20.352Z,101421.91
2022-08-26T10:37:19.072Z,101421.32
2022-08-26T10:38:20.863Z,101421.22
2022-08-26T10:39:20.358Z,101420.94
2022-08-26T10:40:21.098Z,101420.73
2022-08-26T10:41:21.436Z,101420.45
2022-08-26T10:42:22.279Z,101420.11
2022-08-26T10:43:23.110Z,101418.41
2022-08-26T10:44:23.691Z,101417.69
2022-08-26T10:45:24.989Z,101416.65
2022-08-26T10:46:27.283Z,101416.30
2022-08-26T10:47:25.009Z,101415.02
2022-08-26T10:48:26.209Z,101414.39
2022-08-26T10:49:27.178Z,101413.14
2022-08-26T10:50:26.995Z,101412.55
2022-08-26T10:51:28.176Z,101411.38
2022-08-26T10:52:29.348Z,101411.31
2022-08-26T10:53:28.076Z,101410.37
2022-08-26T10:54:28.749Z,101409.81
2022-08-26T10:55:30.813Z,101408.70
2022-08-26T10:56:29.066Z,101408.11
2022-08-26T10:57:30.000Z,101407.34
2022-08-26T10:58:30.234Z,101406.61
2022-08-26T10:59:31.029Z,101406.09
2022-08-26T10:59:42.652Z,101390.06
2022-08-26T11:00:40.903Z,101397.61
2022-08-26T11:01:41.131Z,101396.61
2022-08-26T11:02:41.103Z,101396.02
2022-08-26T11:03:41.765Z,101395.02
2022-08-26T11:04:47.100Z,101394.53
2022-08-26T11:05:43.360Z,101394.33
2022-08-26T11:06:44.002Z,101394.58
2022-08-26T11:07:44.654Z,101394.16
2022-08-26T11:08:44.739Z,101394.33
2022-08-26T11:09:45.487Z,101394.67
2022-08-26T11:10:45.548Z,101395.09
2022-08-26T11:11:47.014Z,101395.34
2022-08-26T11:12:49.358Z,101395.09
2022-08-26T11:13:47.751Z,101395.13
2022-08-26T11:14:58.519Z,101395.30
2022-08-26T11:15:48.764Z,101395.93